N11816 K8D7-KFSD
Flight info
| Callsign | N11816 |
|---|---|
| Flight time | 0h 38m |
| Altitude | 7000 |
| Route | GOLDS T322 OBITT T407 VOLGA |
| Aircraft | PA34/L-SDFGRY/S |
Departure
| Time | 2026-04-21 02:00 |
|---|---|
| Airport | Clark County Airport (K8D7) |
Arrival
| Time | 2026-04-21 02:38 |
|---|---|
| Airport | Sioux Falls Regional Airport (KFSD) |
| Time | Latitude | Longitude | Altitude | Speed | Heading |
|---|---|---|---|---|---|
| 2026-04-21 01:43 | 44.89568 | -97.71412 | 1791 ft | 0 kts | 314° |
| 2026-04-21 01:56 | 44.89570 | -97.71415 | 1791 ft | 2 kts | 314° |
| 2026-04-21 01:56 | 44.89587 | -97.71446 | 1791 ft | 3 kts | 308° |
| 2026-04-21 01:56 | 44.89607 | -97.71479 | 1791 ft | 6 kts | 311° |
| 2026-04-21 01:56 | 44.89645 | -97.71538 | 1791 ft | 9 kts | 317° |
| 2026-04-21 01:57 | 44.89700 | -97.71615 | 1791 ft | 11 kts | 314° |
| 2026-04-21 01:57 | 44.89740 | -97.71629 | 1791 ft | 5 kts | 50° |
| 2026-04-21 01:57 | 44.89760 | -97.71597 | 1791 ft | 2 kts | 48° |
| 2026-04-21 01:57 | 44.89769 | -97.71585 | 1791 ft | 1 kts | 43° |
| 2026-04-21 01:58 | 44.89786 | -97.71557 | 1791 ft | 4 kts | 94° |
| 2026-04-21 01:58 | 44.89774 | -97.71542 | 1791 ft | 0 kts | 133° |
| 2026-04-21 01:59 | 44.89759 | -97.71520 | 1791 ft | 23 kts | 134° |
| 2026-04-21 01:59 | 44.89469 | -97.71107 | 1791 ft | 88 kts | 134° |
| 2026-04-21 01:59 | 44.88981 | -97.70458 | 1939 ft | 101 kts | 141° |
| 2026-04-21 01:59 | 44.88412 | -97.69788 | 2195 ft | 108 kts | 141° |
| 2026-04-21 02:00 | 44.87862 | -97.69086 | 2516 ft | 108 kts | 142° |
| 2026-04-21 02:00 | 44.87252 | -97.68408 | 2703 ft | 114 kts | 146° |
| 2026-04-21 02:00 | 44.86613 | -97.67713 | 2896 ft | 118 kts | 146° |
| 2026-04-21 02:00 | 44.85961 | -97.66989 | 3100 ft | 120 kts | 145° |
| 2026-04-21 02:01 | 44.85310 | -97.66259 | 3304 ft | 121 kts | 145° |
| 2026-04-21 02:01 | 44.84643 | -97.65505 | 3514 ft | 123 kts | 145° |
| 2026-04-21 02:01 | 44.83979 | -97.64753 | 3722 ft | 124 kts | 144° |
| 2026-04-21 02:01 | 44.83300 | -97.63982 | 3931 ft | 125 kts | 145° |
| 2026-04-21 02:02 | 44.82623 | -97.63213 | 4136 ft | 127 kts | 145° |
| 2026-04-21 02:02 | 44.81930 | -97.62426 | 4345 ft | 128 kts | 144° |
| 2026-04-21 02:02 | 44.81234 | -97.61636 | 4549 ft | 130 kts | 144° |
| 2026-04-21 02:02 | 44.80524 | -97.60828 | 4755 ft | 131 kts | 144° |
| 2026-04-21 02:03 | 44.79815 | -97.60023 | 4962 ft | 132 kts | 144° |
| 2026-04-21 02:03 | 44.79091 | -97.59199 | 5174 ft | 134 kts | 144° |
| 2026-04-21 02:03 | 44.78367 | -97.58378 | 5382 ft | 135 kts | 144° |
| 2026-04-21 02:03 | 44.77631 | -97.57542 | 5590 ft | 137 kts | 144° |
| 2026-04-21 02:04 | 44.76885 | -97.56696 | 5794 ft | 138 kts | 143° |
| 2026-04-21 02:04 | 44.76131 | -97.55840 | 5998 ft | 140 kts | 144° |
| 2026-04-21 02:04 | 44.75379 | -97.54987 | 6202 ft | 141 kts | 143° |
| 2026-04-21 02:04 | 44.74606 | -97.54112 | 6409 ft | 142 kts | 143° |
| 2026-04-21 02:05 | 44.73834 | -97.53236 | 6619 ft | 143 kts | 144° |
| 2026-04-21 02:05 | 44.73058 | -97.52357 | 6833 ft | 143 kts | 144° |
| 2026-04-21 02:05 | 44.72288 | -97.51485 | 7041 ft | 144 kts | 144° |
| 2026-04-21 02:05 | 44.71507 | -97.50600 | 7253 ft | 144 kts | 144° |
| 2026-04-21 02:06 | 44.70717 | -97.49707 | 7460 ft | 145 kts | 144° |
| 2026-04-21 02:06 | 44.69907 | -97.48795 | 7497 ft | 158 kts | 144° |
| 2026-04-21 02:06 | 44.69018 | -97.47791 | 7488 ft | 168 kts | 144° |
| 2026-04-21 02:06 | 44.68087 | -97.46738 | 7391 ft | 177 kts | 144° |
| 2026-04-21 02:07 | 44.67100 | -97.45622 | 7264 ft | 184 kts | 143° |
| 2026-04-21 02:07 | 44.66099 | -97.44490 | 7148 ft | 187 kts | 143° |
| 2026-04-21 02:07 | 44.65091 | -97.43351 | 7032 ft | 188 kts | 143° |
| 2026-04-21 02:07 | 44.64075 | -97.42203 | 7020 ft | 182 kts | 143° |
| 2026-04-21 02:08 | 44.63100 | -97.41103 | 7023 ft | 179 kts | 143° |
| 2026-04-21 02:08 | 44.62134 | -97.40013 | 7022 ft | 178 kts | 143° |
| 2026-04-21 02:08 | 44.61167 | -97.38924 | 7023 ft | 177 kts | 144° |
| 2026-04-21 02:08 | 44.60216 | -97.37853 | 7025 ft | 176 kts | 144° |
| 2026-04-21 02:09 | 44.59249 | -97.36764 | 7024 ft | 176 kts | 144° |
| 2026-04-21 02:09 | 44.58299 | -97.35696 | 7022 ft | 176 kts | 144° |
| 2026-04-21 02:09 | 44.57346 | -97.34624 | 7020 ft | 176 kts | 145° |
| 2026-04-21 02:09 | 44.56367 | -97.33524 | 7022 ft | 180 kts | 145° |
| 2026-04-21 02:10 | 44.55385 | -97.32421 | 7025 ft | 182 kts | 145° |
| 2026-04-21 02:10 | 44.54396 | -97.31310 | 7024 ft | 183 kts | 145° |
| 2026-04-21 02:10 | 44.53404 | -97.30196 | 7027 ft | 183 kts | 145° |
| 2026-04-21 02:10 | 44.52398 | -97.29067 | 7027 ft | 184 kts | 146° |
| 2026-04-21 02:11 | 44.51408 | -97.27957 | 7022 ft | 184 kts | 145° |
| 2026-04-21 02:11 | 44.50400 | -97.26826 | 7022 ft | 184 kts | 146° |
| 2026-04-21 02:11 | 44.49411 | -97.25718 | 7027 ft | 184 kts | 146° |
| 2026-04-21 02:11 | 44.48407 | -97.24595 | 7026 ft | 184 kts | 145° |
| 2026-04-21 02:12 | 44.47400 | -97.23467 | 7027 ft | 184 kts | 146° |
| 2026-04-21 02:12 | 44.46508 | -97.22192 | 7023 ft | 187 kts | 127° |
| 2026-04-21 02:12 | 44.46019 | -97.20494 | 7027 ft | 189 kts | 101° |
| 2026-04-21 02:12 | 44.45961 | -97.18673 | 7031 ft | 189 kts | 90° |
| 2026-04-21 02:13 | 44.45978 | -97.16827 | 7029 ft | 189 kts | 88° |
| 2026-04-21 02:13 | 44.46007 | -97.14992 | 7026 ft | 188 kts | 87° |
| 2026-04-21 02:13 | 44.46035 | -97.13176 | 7027 ft | 188 kts | 88° |
| 2026-04-21 02:13 | 44.46061 | -97.11327 | 7027 ft | 188 kts | 88° |
| 2026-04-21 02:14 | 44.46085 | -97.09500 | 7031 ft | 189 kts | 89° |
| 2026-04-21 02:14 | 44.46108 | -97.07672 | 7030 ft | 189 kts | 89° |
| 2026-04-21 02:14 | 44.46129 | -97.05833 | 7033 ft | 190 kts | 88° |
| 2026-04-21 02:14 | 44.46151 | -97.03970 | 7032 ft | 190 kts | 88° |
| 2026-04-21 02:15 | 44.45990 | -97.02168 | 7025 ft | 189 kts | 109° |
| 2026-04-21 02:15 | 44.45360 | -97.00588 | 7021 ft | 183 kts | 142° |
| 2026-04-21 02:15 | 44.44252 | -96.99892 | 7031 ft | 173 kts | 173° |
| 2026-04-21 02:15 | 44.43070 | -96.99511 | 7031 ft | 173 kts | 175° |
| 2026-04-21 02:16 | 44.41896 | -96.99184 | 7031 ft | 172 kts | 175° |
| 2026-04-21 02:16 | 44.40713 | -96.98851 | 7031 ft | 173 kts | 175° |
| 2026-04-21 02:16 | 44.39534 | -96.98511 | 7029 ft | 173 kts | 175° |
| 2026-04-21 02:16 | 44.38349 | -96.98164 | 7026 ft | 174 kts | 174° |
| 2026-04-21 02:17 | 44.37154 | -96.97809 | 7031 ft | 174 kts | 174° |
| 2026-04-21 02:17 | 44.35966 | -96.97453 | 7033 ft | 174 kts | 174° |
| 2026-04-21 02:17 | 44.34781 | -96.97097 | 7037 ft | 174 kts | 174° |
| 2026-04-21 02:17 | 44.33603 | -96.96742 | 7036 ft | 173 kts | 174° |
| 2026-04-21 02:18 | 44.32426 | -96.96388 | 7036 ft | 174 kts | 174° |
| 2026-04-21 02:18 | 44.31246 | -96.96031 | 7030 ft | 174 kts | 174° |
| 2026-04-21 02:18 | 44.30065 | -96.95674 | 7031 ft | 173 kts | 174° |
| 2026-04-21 02:18 | 44.28873 | -96.95313 | 7032 ft | 173 kts | 174° |
| 2026-04-21 02:19 | 44.27700 | -96.94958 | 7036 ft | 172 kts | 174° |
| 2026-04-21 02:19 | 44.26537 | -96.94607 | 7038 ft | 171 kts | 174° |
| 2026-04-21 02:19 | 44.25377 | -96.94257 | 7040 ft | 171 kts | 175° |
| 2026-04-21 02:19 | 44.24204 | -96.93903 | 7038 ft | 170 kts | 174° |
| 2026-04-21 02:20 | 44.23048 | -96.93554 | 7035 ft | 170 kts | 174° |
| 2026-04-21 02:20 | 44.21895 | -96.93206 | 7037 ft | 170 kts | 175° |
| 2026-04-21 02:20 | 44.20740 | -96.92857 | 7042 ft | 170 kts | 175° |
| 2026-04-21 02:20 | 44.19570 | -96.92506 | 7040 ft | 171 kts | 175° |
| 2026-04-21 02:21 | 44.18410 | -96.92155 | 7038 ft | 171 kts | 175° |
| 2026-04-21 02:21 | 44.17250 | -96.91807 | 7034 ft | 171 kts | 174° |
| 2026-04-21 02:21 | 44.16091 | -96.91457 | 7040 ft | 171 kts | 174° |
| 2026-04-21 02:21 | 44.14916 | -96.91103 | 7034 ft | 171 kts | 175° |
| 2026-04-21 02:22 | 44.13768 | -96.90758 | 7034 ft | 170 kts | 175° |
| 2026-04-21 02:22 | 44.12610 | -96.90409 | 7026 ft | 170 kts | 175° |
| 2026-04-21 02:22 | 44.11446 | -96.90059 | 7027 ft | 170 kts | 174° |
| 2026-04-21 02:22 | 44.10297 | -96.89715 | 7024 ft | 169 kts | 175° |
| 2026-04-21 02:23 | 44.09163 | -96.89373 | 6876 ft | 170 kts | 175° |
| 2026-04-21 02:23 | 44.07982 | -96.89020 | 6609 ft | 172 kts | 175° |
| 2026-04-21 02:23 | 44.06836 | -96.88672 | 6358 ft | 168 kts | 175° |
| 2026-04-21 02:23 | 44.05703 | -96.88330 | 6103 ft | 165 kts | 174° |
| 2026-04-21 02:24 | 44.04585 | -96.87994 | 5845 ft | 163 kts | 174° |
| 2026-04-21 02:24 | 44.03495 | -96.87667 | 5596 ft | 161 kts | 174° |
| 2026-04-21 02:24 | 44.02401 | -96.87339 | 5343 ft | 159 kts | 173° |
| 2026-04-21 02:24 | 44.01328 | -96.87018 | 5093 ft | 158 kts | 173° |
| 2026-04-21 02:25 | 44.00248 | -96.86694 | 4840 ft | 158 kts | 173° |
| 2026-04-21 02:25 | 43.99187 | -96.86377 | 4611 ft | 155 kts | 172° |
| 2026-04-21 02:25 | 43.98130 | -96.86060 | 4392 ft | 153 kts | 172° |
| 2026-04-21 02:25 | 43.97098 | -96.85751 | 4174 ft | 152 kts | 172° |
| 2026-04-21 02:26 | 43.96059 | -96.85441 | 3951 ft | 151 kts | 171° |
| 2026-04-21 02:26 | 43.95043 | -96.85137 | 3734 ft | 150 kts | 171° |
| 2026-04-21 02:26 | 43.94029 | -96.84834 | 3517 ft | 149 kts | 171° |
| 2026-04-21 02:26 | 43.93013 | -96.84531 | 3299 ft | 148 kts | 170° |
| 2026-04-21 02:27 | 43.92011 | -96.84232 | 3081 ft | 146 kts | 170° |
| 2026-04-21 02:27 | 43.91032 | -96.83937 | 2996 ft | 138 kts | 169° |
| 2026-04-21 02:27 | 43.90131 | -96.83665 | 3009 ft | 129 kts | 170° |
| 2026-04-21 02:27 | 43.89261 | -96.83403 | 3013 ft | 125 kts | 170° |
| 2026-04-21 02:28 | 43.88417 | -96.83151 | 3015 ft | 123 kts | 171° |
| 2026-04-21 02:28 | 43.87582 | -96.82902 | 3015 ft | 122 kts | 170° |
| 2026-04-21 02:28 | 43.86747 | -96.82654 | 3013 ft | 121 kts | 171° |
| 2026-04-21 02:28 | 43.85926 | -96.82409 | 3012 ft | 121 kts | 171° |
| 2026-04-21 02:29 | 43.85098 | -96.82162 | 3012 ft | 120 kts | 171° |
| 2026-04-21 02:29 | 43.84285 | -96.81920 | 3012 ft | 120 kts | 171° |
| 2026-04-21 02:29 | 43.83461 | -96.81675 | 3009 ft | 120 kts | 170° |
| 2026-04-21 02:29 | 43.82650 | -96.81434 | 3011 ft | 120 kts | 170° |
| 2026-04-21 02:30 | 43.81827 | -96.81189 | 3011 ft | 120 kts | 170° |
| 2026-04-21 02:30 | 43.81019 | -96.80949 | 3012 ft | 120 kts | 170° |
| 2026-04-21 02:30 | 43.80194 | -96.80704 | 3011 ft | 120 kts | 170° |
| 2026-04-21 02:30 | 43.79378 | -96.80461 | 3011 ft | 120 kts | 170° |
| 2026-04-21 02:31 | 43.78556 | -96.80217 | 3011 ft | 120 kts | 171° |
| 2026-04-21 02:31 | 43.77732 | -96.79973 | 3009 ft | 120 kts | 171° |
| 2026-04-21 02:31 | 43.76922 | -96.79732 | 3007 ft | 120 kts | 171° |
| 2026-04-21 02:31 | 43.76114 | -96.79491 | 3005 ft | 119 kts | 171° |
| 2026-04-21 02:32 | 43.75296 | -96.79249 | 3007 ft | 119 kts | 171° |
| 2026-04-21 02:32 | 43.74490 | -96.79009 | 3008 ft | 119 kts | 171° |
| 2026-04-21 02:32 | 43.73683 | -96.78770 | 3005 ft | 119 kts | 171° |
| 2026-04-21 02:32 | 43.72871 | -96.78529 | 3002 ft | 119 kts | 171° |
| 2026-04-21 02:33 | 43.72059 | -96.78288 | 3004 ft | 118 kts | 171° |
| 2026-04-21 02:33 | 43.71256 | -96.78050 | 3008 ft | 118 kts | 171° |
| 2026-04-21 02:33 | 43.70456 | -96.77813 | 3007 ft | 118 kts | 171° |
| 2026-04-21 02:33 | 43.69646 | -96.77573 | 3005 ft | 118 kts | 171° |
| 2026-04-21 02:34 | 43.68851 | -96.77353 | 2957 ft | 113 kts | 173° |
| 2026-04-21 02:34 | 43.68075 | -96.77193 | 2746 ft | 114 kts | 178° |
| 2026-04-21 02:34 | 43.67312 | -96.77123 | 2678 ft | 102 kts | 179° |
| 2026-04-21 02:34 | 43.66652 | -96.77093 | 2675 ft | 87 kts | 181° |
| 2026-04-21 02:35 | 43.66043 | -96.77080 | 2640 ft | 86 kts | 182° |
| 2026-04-21 02:35 | 43.65440 | -96.77042 | 2526 ft | 88 kts | 181° |
| 2026-04-21 02:35 | 43.64836 | -96.77018 | 2481 ft | 87 kts | 180° |
| 2026-04-21 02:35 | 43.64221 | -96.76962 | 2430 ft | 90 kts | 179° |
| 2026-04-21 02:36 | 43.63594 | -96.76878 | 2367 ft | 93 kts | 174° |
| 2026-04-21 02:36 | 43.62942 | -96.76731 | 2299 ft | 94 kts | 170° |
| 2026-04-21 02:36 | 43.62329 | -96.76496 | 2153 ft | 90 kts | 164° |
| 2026-04-21 02:36 | 43.61756 | -96.76145 | 1973 ft | 89 kts | 159° |
| 2026-04-21 02:37 | 43.61187 | -96.75784 | 1823 ft | 90 kts | 160° |
| 2026-04-21 02:37 | 43.60630 | -96.75452 | 1719 ft | 87 kts | 156° |
| 2026-04-21 02:37 | 43.60080 | -96.75095 | 1621 ft | 87 kts | 158° |
| 2026-04-21 02:37 | 43.59522 | -96.74741 | 1512 ft | 89 kts | 158° |
| 2026-04-21 02:38 | 43.58969 | -96.74380 | 1424 ft | 75 kts | 158° |
| 2026-04-21 02:38 | 43.58584 | -96.74142 | 1424 ft | 37 kts | 152° |
| 2026-04-21 02:38 | 43.58422 | -96.74029 | 1424 ft | 17 kts | 144° |
| 2026-04-21 02:38 | 43.58401 | -96.73978 | 1424 ft | 5 kts | 45° |
| 2026-04-21 02:39 | 43.58424 | -96.73950 | 1424 ft | 3 kts | 34° |
| 2026-04-21 02:39 | 43.58445 | -96.73932 | 1424 ft | 5 kts | 32° |
| 2026-04-21 02:39 | 43.58532 | -96.73845 | 1424 ft | 25 kts | 35° |
| 2026-04-21 02:39 | 43.58685 | -96.73704 | 1424 ft | 15 kts | 33° |
| 2026-04-21 02:40 | 43.58714 | -96.73644 | 1424 ft | 0 kts | 79° |
| 2026-04-21 02:40 | 43.58681 | -96.73580 | 1424 ft | 9 kts | 164° |
| 2026-04-21 02:40 | 43.58634 | -96.73550 | 1423 ft | 6 kts | 97° |
| 2026-04-21 02:40 | 43.58636 | -96.73492 | 1423 ft | 5 kts | 90° |
| 2026-04-21 02:41 | 43.58636 | -96.73470 | 1423 ft | 0 kts | 91° |